Aeroporto :
LOGIN :

Iscrizione | Disclaimer

   EN    FR    IT 

 










Sommario :    VFR   VFR Marginale   IFR   IFR Intensivo   IFR Molto Intensivo
Visibilità : 
Base nubi : 
>= 8 km
>= 3000ft
5 / 8 km
1000 / 3000 ft
1500m / 5 km
500 / 1000 ft
800 / 1500m
200 / 500 ft
< 800m
< 200 ft
Simboli :   Temporali  Nebbia  Neve Forte  Precipitazioni Forti  Vento > 20 kt
SIGMETs :   Varie  Temporali  Ghiacco  Turbolenza  Onda orograficha  Ceneri Vulcaniche






- Altitudine del aeroporto : 117 ft
- Codice IATA : NWI


EGSH - Norwich

ULTIMO METAR :
  • 231720Z 29016KT 9999 FEW044 07/M02 Q1018 NOSIG

METARs OBSOLETI :
  • 231650Z 29018KT 250V320 9999 FEW044 08/M01 Q1017 NOSIG
  • 231620Z 29024G36KT 250V320 9999 FEW022 SCT028 09/M01 Q1016
  • 231550Z 29020KT 260V330 9999 FEW022 SCT028 09/01 Q1016 NOSIG
  • 231520Z 29021KT 260V320 9999 FEW022 SCT028 09/01 Q1015 NOSIG
  • 231450Z 29022KT 9999 FEW022 SCT028 09/03 Q1014
  • 231420Z 29020G36KT 270V330 9999 FEW022 SCT028 10/04 Q1013 NOSIG

TAF TAF EGSH
Valido dal 23 a 15 ore il 24 a 00 ore UTC


231356Z 2315/2324 28022G35KT 9999 SCT030
BECMG 2315/2318 27012KT
ATIS : +44 1603 420 640



MetMap, La meteo Aeronautica in un colpo d'occhio ! - Copyright ORBIFLY Dicembre 2007 - Disclaimer

ORBIFLY MET'MAP TEAM :

Programmazione e sviluppo : Alexandra Zaïnal
Concezione : Baudouin d'Aumeries
Aiuto per la programmazione : Marc-Olivier Méhu
Supporto tecnico e logistico : Manuel Goepfert
Aiuto per la traduzione : Arnaldo La Scala

Contatto : metmap@orbifly.com




FONTI E CREDITI :

   NOAA